• Join FlightAware (Why Join?)
  • Login
  • US Flag GB Flag 
04:19 EDT


 

Airport Tracker/Info


-or-


 

Live Flight TrackerFlight Track Log ✈ UAL5999 ✈ 30-Apr-2013 ✈ KGRB - KORD

Flight Track Log - Related Links

Times and Time Zones

All times are in EDT time to prevent confusion due to time zone crossing. See the UAL5999 flight status page for this flight to view local times or setup timezone preferences in your user account.

Time Position Orientation Groundspeed Altitude Reporting Facility
EDT Latitude Longitude Course Direction KTS MPH feet Rate Location/Type
07:11 44.3531 -88.1028 180° South 203 234 6,300  Level Minneapolis Center
07:12 44.3079 -88.1749 175° South  Level FlightAware Approximate
07:12 44.2922 -88.1061 182° South 215 247 8,900  Level Minneapolis Center
07:13 44.2271 -88.1660 176° South  Level FlightAware Approximate
07:13 44.2269 -88.1100 182° South 229 264 11,200  Level Minneapolis Center
07:14 44.1463 -88.1580 176° South  Level FlightAware Approximate
07:14 44.1544 -88.1111 181° South 253 291 12,500  Level Minneapolis Center
07:15 44.0870 -88.1520 176° South  Level FlightAware Approximate
07:15 44.0792 -88.1125 181° South 268 308 13,000  Level Minneapolis Center
07:16 44.0276 -88.1500 180° South  Level FlightAware Approximate
07:16 43.9992 -88.1133 180° South 283 326 13,000  Level Minneapolis Center
07:17 43.9122 -88.1150 181° South 305 351 13,000  Level Minneapolis Center
07:18 43.8264 -88.1164 181° South 309 356 13,000  Level Minneapolis Center
07:19 43.7478 -88.1194 182° South 285 328 13,000  Level Minneapolis Center
07:20 43.6556 -88.1208 181° South 322 371 13,000  Level Minneapolis Center
07:21 43.5611 -88.1214 180° South 335 386 13,000  Level Minneapolis Center
07:21 43.5167 -88.1167 176° South 327 376 13,000  Level KMKE
07:22 43.4686 -88.1250 187° South 332 382 13,000  Level Chicago Center
07:23 43.3772 -88.0914 165° South 368 423 13,000  Level Chicago Center
07:24 43.2825 -87.9808 140° Southeast 380 437 13,000 -120 Level Chicago Center
07:25 43.2044 -87.8883 139° Southeast 371 427 12,800 -840 Descending Chicago Center
07:26 43.1250 -87.7964 140° Southeast 372 428 11,300 -1,320 Descending Chicago Center
07:27 43.0458 -87.7075 141° Southeast 369 425 10,200 -660 Descending Chicago Center
07:28 42.9511 -87.6853 170° South 346 398 10,000 -120 Descending Chicago Center
07:29 42.8586 -87.6642 171° South 336 387 10,000 -660 Level Chicago Center
07:30 42.7889 -87.6458 169° South 261 300 8,700 -1,380 Descending Chicago Center
07:31 42.7175 -87.6261 169° South 259 298 7,200 -840 Descending Chicago Center
07:32 42.6450 -87.6067 169° South 264 304 7,000 -120 Descending Chicago Center
07:33 42.5717 -87.5894 170° South 267 307 7,000  Level Chicago Center
07:34 42.4889 -87.5894 180° South 258 297 7,000  Level Chicago Center
07:35 42.4142 -87.5883 179° South 268 308 7,000  Level Chicago Center
07:36 42.3394 -87.5853 178° South 267 307 7,000 -660 Level Chicago Center
07:37 42.2733 -87.6028 191° South 261 300 5,700 -1,020 Descending Chicago Center
07:38 42.2186 -87.6528 214° Southwest 251 289 5,000 -420 Descending Chicago Center
07:39 42.1656 -87.7094 218° Southwest 246 283 4,900 -660 Descending Chicago Center
07:40 42.1175 -87.7653 221° Southwest 204 235 3,700 -1,020 Descending Chicago Center
07:41 42.0847 -87.8011 219° Southwest 173 199 2,900 -840 Descending Chicago Center
07:42 42.0500 -87.8333 215° Southwest 136 157 2,200 -780 Descending Chicago TRACON